Time;durP1;ratioP1;P1;durP2;ratioP2;P2;SDS_P1;SDS_P2;PMS_P1;PMS_P2;Temp;Humidity;BMP_temperature;BMP_pressure;BME280_temperature;BME280_humidity;BME280_pressure;Samples;Min_cycle;Max_cycle;Signal;HPM_P1;HPM_P2
2022/11/11 00:02:11;;;;;;;16.85;10.60;;;10.90;99.90;;;;;;5097516;28;20105;-72
2022/11/11 00:04:55;;;;;;;16.90;10.90;;;10.90;99.90;;;;;;5098000;28;20140;-74
2022/11/11 00:07:40;;;;;;;16.70;10.10;;;11.00;99.90;;;;;;5082722;28;20047;-75
2022/11/11 00:10:25;;;;;;;15.48;10.00;;;11.00;99.90;;;;;;5097049;28;20074;-74
2022/11/11 00:13:11;;;;;;;14.60;10.13;;;10.90;99.90;;;;;;5097522;28;20051;-75
2022/11/11 00:16:02;;;;;;;20.33;10.07;;;10.80;99.90;;;;;;5098786;28;20059;-74
2022/11/11 00:25:05;;;;;;;18.17;10.38;;;10.80;99.90;;;;;;5101696;28;20058;-70
2022/11/11 00:27:50;;;;;;;14.43;10.73;;;10.80;99.90;;;;;;5100206;28;20051;-73
2022/11/11 00:30:34;;;;;;;17.35;10.43;;;10.70;99.90;;;;;;5100971;28;20343;-74
2022/11/11 00:33:19;;;;;;;14.88;10.52;;;10.80;99.90;;;;;;5100577;28;20044;-73
2022/11/11 00:36:05;;;;;;;15.25;10.27;;;10.80;99.90;;;;;;5100248;28;20101;-69
2022/11/11 00:38:51;;;;;;;13.95;9.98;;;10.80;99.90;;;;;;5100231;28;20405;-72
2022/11/11 00:41:36;;;;;;;17.17;10.88;;;10.70;99.90;;;;;;5100106;28;20070;-74
2022/11/11 00:44:20;;;;;;;16.13;10.23;;;10.70;99.90;;;;;;5086162;28;20379;-72
2022/11/11 00:53:26;;;;;;;21.85;10.15;;;10.90;99.90;;;;;;5100566;28;20042;-73
2022/11/11 00:56:10;;;;;;;16.77;10.13;;;10.80;99.90;;;;;;5100195;28;20050;-67
2022/11/11 00:58:55;;;;;;;14.23;9.68;;;10.80;99.90;;;;;;5099885;28;20059;-75
2022/11/11 01:01:39;;;;;;;16.05;9.50;;;10.70;99.90;;;;;;5099833;28;20410;-73
2022/11/11 01:04:24;;;;;;;14.43;8.65;;;10.80;99.90;;;;;;5100485;28;20055;-73
2022/11/11 01:07:08;;;;;;;16.30;9.82;;;10.80;99.90;;;;;;5099601;28;20086;-75
2022/11/11 01:09:53;;;;;;;14.90;9.40;;;10.70;99.90;;;;;;5085960;28;20345;-74
2022/11/11 01:12:37;;;;;;;12.95;9.57;;;10.70;99.90;;;;;;5085273;28;20086;-73
2022/11/11 01:15:22;;;;;;;17.90;9.50;;;10.70;99.90;;;;;;5099488;28;20299;-74
2022/11/11 01:18:07;;;;;;;13.63;8.80;;;10.70;99.90;;;;;;5099799;28;20055;-73
2022/11/11 01:21:22;;;;;;;14.90;9.73;;;10.80;99.90;;;;;;5099596;28;20318;-74
2022/11/11 01:24:07;;;;;;;13.30;9.23;;;10.80;99.90;;;;;;5100113;28;20051;-74
2022/11/11 01:26:51;;;;;;;13.10;8.32;;;10.80;99.90;;;;;;5083659;28;20311;-73
2022/11/11 01:29:35;;;;;;;13.88;9.40;;;10.70;99.90;;;;;;5098879;28;20083;-74
2022/11/11 01:32:20;;;;;;;13.20;8.57;;;10.70;99.90;;;;;;5085259;28;20059;-74
2022/11/11 01:35:06;;;;;;;14.80;9.13;;;10.70;99.90;;;;;;5085434;28;20082;-74
2022/11/11 01:37:50;;;;;;;11.98;8.43;;;10.70;99.90;;;;;;5099441;28;20093;-73
2022/11/11 01:40:46;;;;;;;14.43;9.40;;;10.70;99.90;;;;;;5084756;28;20067;-75
2022/11/11 01:43:30;;;;;;;14.55;9.27;;;10.60;99.90;;;;;;5099352;28;20042;-73
2022/11/11 01:46:23;;;;;;;14.38;9.65;;;10.70;99.90;;;;;;5084548;28;20051;-72
2022/11/11 01:49:32;;;;;;;14.15;9.82;;;10.70;99.90;;;;;;5098558;28;20391;-74
2022/11/11 01:52:26;;;;;;;18.48;9.52;;;10.70;99.90;;;;;;5099160;28;20043;-72
2022/11/11 01:55:19;;;;;;;14.20;9.30;;;10.60;99.90;;;;;;5099944;28;20042;-75
2022/11/11 01:58:10;;;;;;;19.08;9.95;;;10.70;99.90;;;;;;5099023;28;20054;-74
2022/11/11 02:00:57;;;;;;;13.68;9.30;;;10.70;99.90;;;;;;5099364;28;20108;-74
2022/11/11 02:05:40;;;;;;;15.20;9.63;;;10.60;99.90;;;;;;5098410;28;20181;-74
2022/11/11 02:06:51;;;;;;;14.98;9.05;;;10.60;99.90;;;;;;5099118;28;20046;-74
2022/11/11 02:09:40;;;;;;;17.98;9.82;;;10.60;99.90;;;;;;5098465;28;20043;-75
2022/11/11 02:15:28;;;;;;;15.57;9.80;;;10.60;99.90;;;;;;5098521;28;20051;-74
2022/11/11 02:18:12;;;;;;;15.23;9.90;;;10.60;99.90;;;;;;5098353;28;20475;-73
2022/11/11 02:20:57;;;;;;;13.50;9.23;;;10.70;99.90;;;;;;5097993;28;20058;-71
2022/11/11 02:24:20;;;;;;;14.20;9.77;;;10.60;99.90;;;;;;5097987;28;20185;-73
2022/11/11 02:27:07;;;;;;;20.02;10.50;;;10.70;99.90;;;;;;5064354;28;20050;-73
2022/11/11 02:29:54;;;;;;;15.25;9.15;;;10.70;99.90;;;;;;5099154;28;20051;-73
2022/11/11 02:32:39;;;;;;;14.98;9.20;;;10.60;99.90;;;;;;5098098;28;20307;-74
2022/11/11 02:35:32;;;;;;;16.45;9.38;;;10.60;99.90;;;;;;5098238;28;20117;-73
2022/11/11 02:38:16;;;;;;;14.10;9.93;;;10.60;99.90;;;;;;5098052;28;20066;-73
2022/11/11 02:44:04;;;;;;;15.73;9.35;;;10.70;99.90;;;;;;5097960;28;20055;-74
2022/11/11 02:46:49;;;;;;;13.85;9.52;;;10.60;99.90;;;;;;5097256;28;20141;-74
2022/11/11 02:49:33;;;;;;;13.82;9.65;;;10.60;99.90;;;;;;5097600;28;20082;-74
2022/11/11 02:52:18;;;;;;;13.65;9.70;;;10.50;99.90;;;;;;5097545;28;20043;-74
2022/11/11 02:55:03;;;;;;;17.05;10.57;;;10.60;99.90;;;;;;5083296;28;20058;-74
2022/11/11 02:57:47;;;;;;;17.13;9.90;;;10.70;99.90;;;;;;5097444;28;20055;-74
2022/11/11 03:00:32;;;;;;;16.95;9.93;;;10.60;99.90;;;;;;5097617;28;20410;-74
2022/11/11 03:03:16;;;;;;;16.38;10.48;;;10.50;99.90;;;;;;5097466;28;20063;-74
2022/11/11 03:06:00;;;;;;;15.88;10.35;;;10.40;99.90;;;;;;5097160;28;20117;-72
2022/11/11 03:08:45;;;;;;;14.38;10.10;;;10.40;99.90;;;;;;5082981;28;20414;-73
2022/11/11 03:11:29;;;;;;;18.77;10.65;;;10.40;99.90;;;;;;5082705;28;20441;-71
2022/11/11 03:14:13;;;;;;;13.90;9.70;;;10.30;99.90;;;;;;5097944;28;20105;-73
2022/11/11 03:23:07;;;;;;;16.60;9.88;;;10.30;99.90;;;;;;5097873;28;19916;-73
2022/11/11 03:25:51;;;;;;;14.82;9.73;;;10.30;99.90;;;;;;5098395;28;20042;-72
2022/11/11 03:28:36;;;;;;;15.48;9.75;;;10.40;99.90;;;;;;5096916;28;20120;-75
2022/11/11 03:31:20;;;;;;;20.23;10.13;;;10.20;99.90;;;;;;5082573;28;20058;-75
2022/11/11 03:34:25;;;;;;;14.55;9.38;;;10.10;99.90;;;;;;5083010;28;20064;-74
2022/11/11 03:40:13;;;;;;;11.77;9.25;;;10.10;99.90;;;;;;5098109;28;20055;-74
2022/11/11 03:42:58;;;;;;;13.98;8.77;;;10.20;99.90;;;;;;5096705;28;20135;-74
2022/11/11 03:45:43;;;;;;;11.88;8.65;;;10.20;99.90;;;;;;5082392;28;20109;-74
2022/11/11 03:48:30;;;;;;;14.70;9.10;;;10.20;99.90;;;;;;5097049;28;20316;-74
2022/11/11 03:51:15;;;;;;;10.45;8.63;;;10.20;99.90;;;;;;5100209;28;20176;-74
2022/11/11 03:53:59;;;;;;;12.02;8.90;;;10.10;99.90;;;;;;5101083;28;20046;-71
2022/11/11 03:56:43;;;;;;;13.45;8.00;;;10.10;99.90;;;;;;5101496;28;20100;-75
2022/11/11 03:59:27;;;;;;;14.25;8.85;;;10.00;99.90;;;;;;5086314;28;20067;-74
2022/11/11 04:11:31;;;;;;;15.00;9.20;;;10.10;99.90;;;;;;5101740;28;20097;-74
2022/11/11 04:17:18;;;;;;;11.23;8.02;;;10.00;99.90;;;;;;5100973;28;20063;-72
2022/11/11 04:23:07;;;;;;;13.25;8.52;;;10.00;99.90;;;;;;5101180;28;20104;-71
2022/11/11 04:25:52;;;;;;;14.98;8.35;;;10.00;99.90;;;;;;5100791;28;20058;-74
2022/11/11 04:32:34;;;;;;;15.55;9.25;;;9.90;99.90;;;;;;5100351;28;20244;-75
2022/11/11 04:34:46;;;;;;;13.13;8.88;;;9.90;99.90;;;;;;5100618;28;20047;-75
2022/11/11 04:37:33;;;;;;;14.57;9.13;;;9.90;99.90;;;;;;5100233;28;20482;-74
2022/11/11 04:43:20;;;;;;;;;;;9.90;99.90;;;;;;5100754;28;20467;-75
2022/11/11 04:46:04;;;;;;;13.88;9.13;;;9.90;99.90;;;;;;5100443;28;19927;-74
2022/11/11 04:48:49;;;;;;;14.98;9.60;;;9.90;99.90;;;;;;5099745;28;20067;-74
2022/11/11 04:56:46;;;;;;;63.10;40.45;;;9.80;99.90;;;;;;5100364;28;20043;-71
2022/11/11 04:57:43;;;;;;;16.13;10.68;;;9.90;99.90;;;;;;5100002;28;20097;-72
2022/11/11 05:00:28;;;;;;;17.23;10.55;;;9.90;99.90;;;;;;5099928;28;20055;-71
2022/11/11 05:03:23;;;;;;;17.30;11.50;;;9.90;99.90;;;;;;5085043;28;20105;-72
2022/11/11 05:09:10;;;;;;;20.27;12.18;;;9.80;99.90;;;;;;5099724;28;20050;-73
2022/11/11 05:11:55;;;;;;;20.30;12.40;;;9.90;99.90;;;;;;5085666;28;20047;-72
2022/11/11 05:26:55;;;;;;;15.73;11.57;;;9.70;99.90;;;;;;5099065;28;20051;-72
2022/11/11 05:29:40;;;;;;;17.35;12.18;;;9.90;99.90;;;;;;5085294;28;20047;-72
2022/11/11 05:32:25;;;;;;;18.75;12.10;;;9.90;99.90;;;;;;5098809;28;20050;-74
2022/11/11 05:35:11;;;;;;;19.98;12.68;;;9.70;99.90;;;;;;5099132;28;20035;-72
2022/11/11 05:38:19;;;;;;;18.17;12.40;;;9.60;99.90;;;;;;5099251;28;20422;-72
2022/11/11 05:41:04;;;;;;;17.98;12.18;;;9.60;99.90;;;;;;5098606;28;20319;-73
2022/11/11 05:43:48;;;;;;;18.55;11.77;;;9.70;99.90;;;;;;5084418;28;20051;-71
2022/11/11 05:46:33;;;;;;;18.77;11.88;;;9.70;99.90;;;;;;5098911;28;20066;-72
2022/11/11 05:49:17;;;;;;;16.10;11.40;;;9.80;99.90;;;;;;5099183;28;20109;-71
2022/11/11 05:52:03;;;;;;;18.73;12.88;;;9.90;99.90;;;;;;5084066;28;20414;-72
2022/11/11 05:54:47;;;;;;;17.25;11.73;;;9.80;99.90;;;;;;5098851;28;20093;-73
2022/11/11 05:57:31;;;;;;;19.42;12.30;;;9.60;99.90;;;;;;5099007;28;20055;-71
2022/11/11 06:00:16;;;;;;;18.00;12.25;;;9.50;99.90;;;;;;5099276;28;20427;-73
2022/11/11 06:03:03;;;;;;;18.67;12.48;;;9.50;99.90;;;;;;5098705;28;20094;-71
2022/11/11 06:05:47;;;;;;;19.45;12.85;;;9.50;99.90;;;;;;5098147;28;20043;-72
2022/11/11 06:08:32;;;;;;;21.48;12.57;;;9.50;99.90;;;;;;5098824;28;20101;-73
2022/11/11 06:11:16;;;;;;;22.05;12.25;;;9.50;99.90;;;;;;5098909;28;20129;-73
2022/11/11 06:14:01;;;;;;;17.40;12.57;;;9.50;99.90;;;;;;5097721;28;20052;-71
2022/11/11 06:16:46;;;;;;;19.35;13.32;;;9.40;99.90;;;;;;5097987;28;20047;-73
2022/11/11 06:19:30;;;;;;;24.50;13.60;;;9.40;99.90;;;;;;5098389;28;20059;-73
2022/11/11 06:22:54;;;;;;;19.85;13.75;;;9.50;99.90;;;;;;5097681;28;20054;-71
2022/11/11 06:28:21;;;;;;;21.58;14.30;;;9.40;99.90;;;;;;5098264;28;20073;-72
2022/11/11 06:31:07;;;;;;;23.02;14.40;;;9.40;99.90;;;;;;5097866;28;20189;-73
2022/11/11 06:33:52;;;;;;;25.45;15.32;;;9.40;99.90;;;;;;5098471;28;20096;-74
2022/11/11 06:36:37;;;;;;;23.33;15.82;;;9.40;99.90;;;;;;5069580;28;20050;-72
2022/11/11 06:39:21;;;;;;;24.08;15.00;;;9.40;99.90;;;;;;5097670;28;20054;-73
2022/11/11 06:42:06;;;;;;;21.10;13.75;;;9.50;99.90;;;;;;5097616;28;20069;-73
2022/11/11 06:44:50;;;;;;;19.92;15.18;;;9.40;99.90;;;;;;5098317;28;20378;-72
2022/11/11 06:47:35;;;;;;;23.75;14.65;;;9.40;99.90;;;;;;5097328;28;20097;-72
2022/11/11 06:50:20;;;;;;;25.10;16.40;;;9.40;99.90;;;;;;5097514;28;20043;-72
2022/11/11 06:53:10;;;;;;;32.38;19.25;;;9.40;99.90;;;;;;5097571;28;20154;-73
2022/11/11 06:55:55;;;;;;;31.95;21.02;;;9.40;99.90;;;;;;5112541;28;20063;-74
2022/11/11 06:58:40;;;;;;;30.88;20.48;;;9.40;99.90;;;;;;5097732;28;20129;-73
2022/11/11 07:01:24;;;;;;;29.05;20.13;;;9.30;99.90;;;;;;5098554;28;20131;-71
2022/11/11 07:04:08;;;;;;;36.08;22.15;;;9.40;99.90;;;;;;5082690;28;20055;-71
2022/11/11 07:06:53;;;;;;;35.80;22.02;;;9.40;99.90;;;;;;5097416;28;20097;-75
2022/11/11 07:09:37;;;;;;;30.23;20.15;;;9.40;99.90;;;;;;5096974;28;20089;-72
2022/11/11 07:12:22;;;;;;;28.88;18.23;;;9.40;99.90;;;;;;5097328;28;20089;-74
2022/11/11 07:15:08;;;;;;;25.40;17.38;;;9.30;99.90;;;;;;5097638;28;20303;-74
2022/11/11 07:17:52;;;;;;;25.10;16.25;;;9.20;99.90;;;;;;5097950;28;20323;-70
2022/11/11 07:20:37;;;;;;;26.95;17.02;;;9.20;99.90;;;;;;5097558;28;20161;-72
2022/11/11 07:23:21;;;;;;;26.85;17.23;;;9.30;99.90;;;;;;5097728;28;20047;-73
2022/11/11 07:26:05;;;;;;;27.63;18.50;;;9.40;99.90;;;;;;5097313;28;20094;-70
2022/11/11 07:28:50;;;;;;;33.40;20.58;;;9.30;99.90;;;;;;5097243;28;20094;-73
2022/11/11 07:31:35;;;;;;;33.25;21.48;;;9.30;99.90;;;;;;5096734;28;20304;-72
2022/11/11 07:34:22;;;;;;;32.28;21.15;;;9.30;99.90;;;;;;5097821;28;20312;-74
2022/11/11 07:37:07;;;;;;;28.90;19.73;;;9.40;99.90;;;;;;5097428;28;20063;-76
2022/11/11 07:39:51;;;;;;;32.40;19.73;;;9.50;99.90;;;;;;5098289;28;20104;-72
2022/11/11 07:42:40;;;;;;;28.98;19.77;;;9.60;99.90;;;;;;5082566;28;20051;-71
2022/11/11 07:45:25;;;;;;;33.15;20.73;;;9.50;99.90;;;;;;5097070;28;20047;-71
2022/11/11 07:48:09;;;;;;;28.63;19.60;;;9.50;99.90;;;;;;5096601;28;20088;-73
2022/11/11 07:50:54;;;;;;;27.92;19.27;;;9.50;99.90;;;;;;5096594;28;20080;-71
2022/11/11 07:53:38;;;;;;;25.83;17.60;;;9.50;99.90;;;;;;5096502;28;20051;-70
2022/11/11 07:56:23;;;;;;;25.27;16.50;;;9.40;99.90;;;;;;5082541;28;20172;-72
2022/11/11 07:59:08;;;;;;;20.35;15.48;;;9.40;99.90;;;;;;5097293;28;20113;-70
2022/11/11 08:01:52;;;;;;;18.70;13.02;;;9.40;99.90;;;;;;5096770;28;20060;-69
2022/11/11 08:04:37;;;;;;;19.00;12.93;;;9.40;99.90;;;;;;5097418;28;20104;-70
2022/11/11 08:07:22;;;;;;;19.63;12.63;;;9.50;99.90;;;;;;5096362;28;20105;-69
2022/11/11 08:10:07;;;;;;;17.42;11.82;;;9.40;99.90;;;;;;5096972;28;20116;-70
2022/11/11 08:15:58;;;;;;;17.00;11.27;;;9.50;99.90;;;;;;5097256;28;20093;-70
2022/11/11 08:18:43;;;;;;;15.98;10.52;;;9.50;99.90;;;;;;5096735;28;20070;-71
2022/11/11 08:21:28;;;;;;;13.52;9.80;;;9.50;99.90;;;;;;5097060;28;20047;-68
2022/11/11 08:24:12;;;;;;;10.93;8.13;;;9.40;99.90;;;;;;5096958;28;20197;-68
2022/11/11 08:26:56;;;;;;;11.40;7.60;;;9.40;99.90;;;;;;5096346;28;20051;-71
2022/11/11 08:29:41;;;;;;;10.80;7.85;;;9.40;99.90;;;;;;5096551;28;20039;-70
2022/11/11 08:32:26;;;;;;;12.80;7.70;;;9.40;99.90;;;;;;5096884;28;20361;-71
2022/11/11 08:35:10;;;;;;;11.18;7.18;;;9.60;99.90;;;;;;5081766;28;20280;-70
2022/11/11 08:37:55;;;;;;;11.23;7.75;;;9.60;99.90;;;;;;5100238;28;20078;-71
2022/11/11 08:40:40;;;;;;;13.05;8.77;;;9.70;99.90;;;;;;5100077;28;20057;-70
2022/11/11 08:43:25;;;;;;;11.02;8.43;;;9.80;99.90;;;;;;5100552;28;20110;-71
2022/11/11 08:46:10;;;;;;;13.43;9.15;;;9.90;99.90;;;;;;5100112;28;20040;-73
2022/11/11 08:48:55;;;;;;;13.57;8.73;;;9.70;99.90;;;;;;5099744;28;20316;-72
2022/11/11 08:51:39;;;;;;;13.70;8.30;;;9.70;99.90;;;;;;5099831;28;20356;-70
2022/11/11 08:54:23;;;;;;;13.07;8.73;;;9.80;99.90;;;;;;5100413;28;20043;-67
2022/11/11 08:57:08;;;;;;;11.30;9.13;;;9.90;99.90;;;;;;5099519;28;20086;-71
2022/11/11 08:59:53;;;;;;;13.23;8.75;;;9.90;99.90;;;;;;5099386;28;20067;-70
2022/11/11 09:02:37;;;;;;;12.43;9.00;;;10.00;99.90;;;;;;5100470;28;20105;-68
2022/11/11 09:05:22;;;;;;;10.70;8.45;;;10.10;99.90;;;;;;5099941;28;20055;-72
2022/11/11 09:08:07;;;;;;;12.32;8.57;;;10.30;99.90;;;;;;5100023;28;20051;-70
2022/11/11 09:10:52;;;;;;;16.23;9.63;;;10.50;99.90;;;;;;5100096;28;20452;-68
2022/11/11 09:13:37;;;;;;;12.27;9.30;;;10.50;99.90;;;;;;5099765;28;20117;-72
2022/11/11 09:16:21;;;;;;;16.33;10.13;;;10.40;99.90;;;;;;5100294;28;20046;-71
2022/11/11 09:19:05;;;;;;;14.07;10.27;;;10.50;99.90;;;;;;5099121;28;20055;-72
2022/11/11 09:21:51;;;;;;;19.48;11.05;;;10.40;99.90;;;;;;5099265;28;20051;-69
2022/11/11 09:24:36;;;;;;;19.60;13.02;;;10.40;99.90;;;;;;5099779;28;20117;-71
2022/11/11 09:27:20;;;;;;;18.48;13.27;;;10.50;99.90;;;;;;5098801;28;20132;-71
2022/11/11 09:30:06;;;;;;;21.55;13.70;;;10.50;99.90;;;;;;5099988;28;20047;-68
2022/11/11 09:32:51;;;;;;;20.77;13.75;;;10.50;99.90;;;;;;5099923;28;20059;-70
2022/11/11 09:35:35;;;;;;;22.30;15.38;;;10.60;99.90;;;;;;5099194;28;20051;-66
2022/11/11 09:38:20;;;;;;;19.48;14.70;;;10.60;99.90;;;;;;5099025;28;20046;-67
2022/11/11 09:41:09;;;;;;;21.90;14.55;;;10.60;99.90;;;;;;5099169;28;20047;-66
2022/11/11 09:43:59;;;;;;;18.98;14.07;;;10.60;99.90;;;;;;5098931;28;20128;-66
2022/11/11 09:47:13;;;;;;;20.88;14.75;;;10.70;99.90;;;;;;5099081;28;20054;-66
2022/11/11 09:50:04;;;;;;;20.17;14.48;;;10.80;99.90;;;;;;5098886;28;20307;-66
2022/11/11 09:52:54;;;;;;;19.05;14.40;;;10.80;99.90;;;;;;5099237;28;20051;-65
2022/11/11 09:56:01;;;;;;;20.90;14.55;;;10.90;99.90;;;;;;5098943;28;20089;-65
2022/11/11 09:59:07;;;;;;;21.63;14.35;;;10.90;99.90;;;;;;5098794;28;20109;-66
2022/11/11 10:02:00;;;;;;;18.48;14.00;;;11.20;99.90;;;;;;5098857;28;20047;-68
2022/11/11 10:05:06;;;;;;;18.52;13.40;;;11.30;99.90;;;;;;5099630;28;20047;-67
2022/11/11 10:08:01;;;;;;;19.10;13.85;;;11.30;99.90;;;;;;5098453;28;20173;-67
2022/11/11 10:10:47;;;;;;;19.98;14.40;;;11.40;99.90;;;;;;5097990;28;20043;-66
2022/11/11 10:13:34;;;;;;;18.70;13.63;;;11.50;99.90;;;;;;5098002;28;20051;-66
2022/11/11 10:16:30;;;;;;;18.98;13.30;;;11.70;99.90;;;;;;5098791;28;20100;-66
2022/11/11 10:19:28;;;;;;;17.65;14.70;;;11.80;99.90;;;;;;5098806;28;20086;-65
2022/11/11 10:22:22;;;;;;;20.40;14.18;;;11.90;99.90;;;;;;5098524;28;20043;-65
2022/11/11 10:25:13;;;;;;;19.25;14.15;;;12.10;99.90;;;;;;5098054;28;20221;-65
2022/11/11 10:28:00;;;;;;;20.08;14.02;;;12.60;99.90;;;;;;5098476;28;20054;-66
2022/11/11 10:30:47;;;;;;;17.95;13.98;;;12.80;99.90;;;;;;5098328;28;20468;-65
2022/11/11 10:33:57;;;;;;;18.42;13.90;;;12.60;99.90;;;;;;5097755;28;20295;-66
2022/11/11 10:36:52;;;;;;;18.48;14.13;;;12.80;99.90;;;;;;5097568;28;20042;-65
2022/11/11 10:40:14;;;;;;;16.58;13.52;;;12.90;99.90;;;;;;5098674;28;20050;-66
2022/11/11 10:42:58;;;;;;;15.65;12.45;;;12.90;99.90;;;;;;5098246;28;20051;-67
2022/11/11 10:45:53;;;;;;;15.50;12.52;;;12.70;99.90;;;;;;5097271;28;20051;-65
2022/11/11 10:48:59;;;;;;;17.15;12.38;;;12.70;99.90;;;;;;5098108;28;20116;-66
2022/11/11 10:51:54;;;;;;;12.70;10.82;;;13.00;99.90;;;;;;5098330;28;20357;-66
2022/11/11 10:54:57;;;;;;;12.73;10.50;;;13.70;99.90;;;;;;5097923;28;20169;-66
2022/11/11 10:57:48;;;;;;;13.18;10.13;;;14.90;99.90;;;;;;5097805;28;20487;-66
2022/11/11 11:00:36;;;;;;;10.57;8.48;;;15.70;99.90;;;;;;5097468;28;20050;-66
2022/11/11 11:03:29;;;;;;;11.02;8.20;;;15.20;99.90;;;;;;5097656;28;20063;-67
2022/11/11 11:06:21;;;;;;;9.95;8.02;;;15.60;99.90;;;;;;5097366;28;20043;-66
2022/11/11 11:09:08;;;;;;;9.30;7.25;;;16.20;99.90;;;;;;5097606;28;20078;-67
2022/11/11 11:12:21;;;;;;;9.82;6.80;;;15.20;99.90;;;;;;5097555;28;20185;-67
2022/11/11 11:15:27;;;;;;;7.72;6.60;;;15.00;99.90;;;;;;5096990;28;20043;-67
2022/11/11 11:18:13;;;;;;;7.07;5.57;;;14.50;99.90;;;;;;5097260;28;20043;-64
2022/11/11 11:20:59;;;;;;;9.55;6.10;;;14.00;99.90;;;;;;5098131;28;20134;-65
2022/11/11 11:23:45;;;;;;;6.70;5.45;;;13.60;99.90;;;;;;5096850;28;20043;-63
2022/11/11 11:26:46;;;;;;;7.68;5.40;;;13.60;99.90;;;;;;5097237;28;20043;-65
2022/11/11 11:29:41;;;;;;;5.78;5.18;;;13.60;99.90;;;;;;5097649;28;20291;-64
2022/11/11 11:32:30;;;;;;;8.38;5.45;;;13.60;99.90;;;;;;5097076;28;20058;-66
2022/11/11 11:35:31;;;;;;;7.75;5.88;;;13.80;99.90;;;;;;5097274;28;20074;-66
2022/11/11 11:38:17;;;;;;;7.85;5.53;;;14.00;99.90;;;;;;5096869;28;20067;-65
2022/11/11 11:41:02;;;;;;;7.15;4.80;;;14.00;99.90;;;;;;5097044;28;20043;-66
2022/11/11 11:43:46;;;;;;;6.30;4.80;;;14.00;99.90;;;;;;5096767;28;20050;-66
2022/11/11 11:46:39;;;;;;;6.85;4.60;;;14.10;99.90;;;;;;5082415;28;20051;-65
2022/11/11 11:49:29;;;;;;;4.90;4.32;;;14.30;99.90;;;;;;5097116;28;20109;-64
2022/11/11 11:52:44;;;;;;;7.10;4.57;;;14.30;99.90;;;;;;5097204;28;20043;-64
2022/11/11 11:55:34;;;;;;;7.03;4.50;;;14.20;99.90;;;;;;5096396;28;20085;-65
2022/11/11 11:58:25;;;;;;;5.47;4.03;;;14.10;99.90;;;;;;5096743;28;20189;-65
2022/11/11 12:01:37;;;;;;;5.97;4.28;;;14.20;99.90;;;;;;5097209;28;20039;-64
2022/11/11 12:04:37;;;;;;;5.20;3.60;;;14.30;99.90;;;;;;5096656;28;20415;-64
2022/11/11 12:07:54;;;;;;;6.22;4.40;;;14.50;99.90;;;;;;5097052;28;20042;-65
2022/11/11 12:10:48;;;;;;;7.70;4.40;;;14.30;99.90;;;;;;5097688;28;20093;-64
2022/11/11 12:14:03;;;;;;;6.07;4.18;;;14.30;99.90;;;;;;5101006;28;20437;-65
2022/11/11 12:16:58;;;;;;;5.47;3.60;;;14.40;99.90;;;;;;5100238;28;20047;-64
2022/11/11 12:19:52;;;;;;;4.95;3.35;;;14.50;99.90;;;;;;5100474;28;20096;-64
2022/11/11 12:23:10;;;;;;;4.38;3.20;;;14.30;99.90;;;;;;5100084;28;20133;-65
2022/11/11 12:26:12;;;;;;;5.35;3.47;;;14.30;99.90;;;;;;5100796;28;20073;-64
2022/11/11 12:29:22;;;;;;;3.75;3.13;;;14.40;99.90;;;;;;5101366;28;20047;-65
2022/11/11 12:32:46;;;;;;;5.00;3.60;;;14.10;99.90;;;;;;5099919;28;20450;-66
2022/11/11 12:35:56;;;;;;;5.30;3.35;;;13.90;99.90;;;;;;5079404;28;20047;-64
2022/11/11 12:39:25;;;;;;;7.20;3.38;;;14.00;99.90;;;;;;5100048;28;20043;-66
2022/11/11 12:42:16;;;;;;;5.20;2.83;;;14.20;99.90;;;;;;5099754;28;20039;-66
2022/11/11 12:45:17;;;;;;;4.90;2.83;;;14.40;99.90;;;;;;5100571;28;20441;-65
2022/11/11 12:48:02;;;;;;;4.07;2.50;;;14.30;99.90;;;;;;5099545;28;20450;-63
2022/11/11 12:50:59;;;;;;;2.97;2.67;;;14.20;99.90;;;;;;5100873;28;20398;-66
2022/11/11 12:54:15;;;;;;;5.97;2.75;;;14.20;99.90;;;;;;5100426;28;20078;-66
2022/11/11 12:57:28;;;;;;;3.95;2.17;;;14.30;99.90;;;;;;5100319;28;20094;-66
2022/11/11 13:00:18;;;;;;;3.70;2.70;;;14.40;99.90;;;;;;5099977;28;20086;-65
2022/11/11 13:03:40;;;;;;;5.32;2.92;;;14.50;99.90;;;;;;5099691;28;20047;-66
2022/11/11 13:06:51;;;;;;;2.65;1.90;;;14.50;99.90;;;;;;5099281;28;20154;-65
2022/11/11 13:10:00;;;;;;;2.42;2.20;;;14.40;99.90;;;;;;5099899;28;20039;-65
2022/11/11 13:12:50;;;;;;;2.38;2.05;;;14.20;99.90;;;;;;5099453;28;20082;-64
2022/11/11 13:15:35;;;;;;;4.50;2.10;;;14.20;99.90;;;;;;5099178;28;20410;-66
2022/11/11 13:18:35;;;;;;;4.78;1.75;;;14.20;99.90;;;;;;5100012;28;20096;-65
2022/11/11 13:21:25;;;;;;;2.42;1.80;;;14.30;99.90;;;;;;5099522;28;20050;-65
2022/11/11 13:24:16;;;;;;;3.80;2.10;;;14.40;99.90;;;;;;5099318;28;20039;-65
2022/11/11 13:27:13;;;;;;;4.65;1.73;;;14.70;99.90;;;;;;5099734;28;20138;-65
2022/11/11 13:30:07;;;;;;;4.10;2.00;;;14.70;99.90;;;;;;5099849;28;20410;-68
2022/11/11 13:32:58;;;;;;;2.97;1.80;;;14.90;99.90;;;;;;5099555;28;20069;-67
2022/11/11 13:35:49;;;;;;;4.90;1.90;;;14.80;99.90;;;;;;5099326;28;20365;-65
2022/11/11 13:38:45;;;;;;;3.40;2.30;;;14.90;99.90;;;;;;5099681;28;20101;-65
2022/11/11 13:41:40;;;;;;;2.63;1.88;;;14.80;99.90;;;;;;5099275;28;20051;-65
2022/11/11 13:44:55;;;;;;;4.70;2.08;;;14.90;99.90;;;;;;5099833;28;20047;-65
2022/11/11 13:47:44;;;;;;;3.45;1.98;;;15.00;99.90;;;;;;5099228;28;20335;-65
2022/11/11 13:50:32;;;;;;;3.22;1.80;;;15.20;99.90;;;;;;5099304;28;20353;-65
2022/11/11 13:53:32;;;;;;;3.17;1.75;;;15.20;99.90;;;;;;5098429;28;20135;-64
2022/11/11 13:56:26;;;;;;;2.05;1.58;;;15.20;99.90;;;;;;5098920;28;20353;-65
2022/11/11 13:59:20;;;;;;;;;;;15.10;99.90;;;;;;5098750;28;20365;-66
2022/11/11 14:02:28;;;;;;;1.55;1.27;;;15.00;99.90;;;;;;5099133;28;19919;-65
2022/11/11 14:05:12;;;;;;;2.88;1.65;;;15.10;99.90;;;;;;5099331;28;20093;-65
2022/11/11 14:07:58;;;;;;;3.80;1.70;;;15.10;99.90;;;;;;5098161;28;20124;-67
2022/11/11 14:10:51;;;;;;;2.72;1.88;;;15.10;99.90;;;;;;5098405;28;20069;-66
2022/11/11 14:13:37;;;;;;;2.47;1.55;;;15.00;99.90;;;;;;5098579;28;20097;-64
2022/11/11 14:16:34;;;;;;;3.55;1.42;;;15.20;99.90;;;;;;5098455;28;20323;-66
2022/11/11 14:19:18;;;;;;;2.70;1.75;;;15.10;99.90;;;;;;5098531;28;20164;-65
2022/11/11 14:22:33;;;;;;;3.33;1.60;;;14.90;99.90;;;;;;5098261;28;20055;-65
2022/11/11 14:25:25;;;;;;;3.22;1.60;;;14.50;99.90;;;;;;5098668;28;20058;-66
2022/11/11 14:28:29;;;;;;;2.88;1.80;;;14.30;99.90;;;;;;5097782;28;20046;-67
2022/11/11 14:31:14;;;;;;;3.60;2.17;;;14.40;99.90;;;;;;5098355;28;20044;-65
2022/11/11 14:34:19;;;;;;;3.75;1.70;;;14.50;99.90;;;;;;5097386;28;20321;-67
2022/11/11 14:37:23;;;;;;;3.38;1.60;;;14.40;99.90;;;;;;5098185;28;20127;-67
2022/11/11 14:40:12;;;;;;;3.00;1.63;;;14.50;99.90;;;;;;5097635;28;20361;-66
2022/11/11 14:42:58;;;;;;;3.22;1.80;;;14.60;99.90;;;;;;5097495;28;20055;-66
2022/11/11 14:45:43;;;;;;;2.60;1.80;;;14.70;99.90;;;;;;5097907;28;20067;-66
2022/11/11 14:48:49;;;;;;;2.33;1.85;;;14.60;99.90;;;;;;5098286;28;20395;-66
2022/11/11 14:51:44;;;;;;;2.58;1.70;;;14.70;99.90;;;;;;5097962;28;20089;-65
2022/11/11 14:55:01;;;;;;;2.70;1.52;;;14.70;99.90;;;;;;5098472;28;20291;-65
2022/11/11 14:57:53;;;;;;;3.17;1.60;;;14.90;99.90;;;;;;5097500;28;20050;-65
2022/11/11 15:00:58;;;;;;;3.05;1.65;;;14.90;99.90;;;;;;5097085;28;20051;-63
2022/11/11 15:03:50;;;;;;;2.85;1.80;;;14.80;99.90;;;;;;5097025;28;20039;-60
2022/11/11 15:07:00;;;;;;;4.25;1.85;;;14.80;99.90;;;;;;5096768;28;20074;-62
2022/11/11 15:10:05;;;;;;;3.05;1.67;;;14.60;99.90;;;;;;5096839;28;20303;-60
2022/11/11 15:13:14;;;;;;;3.65;1.90;;;14.60;99.90;;;;;;5097021;28;20056;-61
2022/11/11 15:16:31;;;;;;;3.70;2.03;;;14.50;99.90;;;;;;5096993;28;20131;-60
2022/11/11 15:19:38;;;;;;;4.05;2.17;;;14.40;99.90;;;;;;5096693;28;20101;-60
2022/11/11 15:22:22;;;;;;;3.35;2.83;;;14.30;99.90;;;;;;5097099;28;20034;-60
2022/11/11 15:25:36;;;;;;;5.40;2.80;;;14.20;99.90;;;;;;5097314;28;20035;-60
2022/11/11 15:28:48;;;;;;;4.68;3.28;;;14.00;99.90;;;;;;5096795;28;20101;-61
2022/11/11 15:31:37;;;;;;;3.78;2.40;;;14.00;99.90;;;;;;5095952;28;20043;-60
2022/11/11 15:34:27;;;;;;;3.45;2.60;;;13.80;99.90;;;;;;5096703;28;20300;-61
2022/11/11 15:37:16;;;;;;;4.05;2.58;;;13.70;99.90;;;;;;5096711;28;20059;-60
2022/11/11 15:40:02;;;;;;;5.53;2.30;;;13.60;99.90;;;;;;5081758;28;20373;-60
2022/11/11 15:42:48;;;;;;;6.57;2.85;;;13.50;99.90;;;;;;5096826;28;20055;-60
2022/11/11 15:45:35;;;;;;;6.35;2.90;;;13.40;99.90;;;;;;5095215;28;20043;-60
2022/11/11 15:48:40;;;;;;;5.15;3.03;;;13.30;99.90;;;;;;5096336;28;20055;-61
2022/11/11 15:51:30;;;;;;;5.28;2.83;;;13.20;99.90;;;;;;5097004;28;20418;-61
2022/11/11 15:54:18;;;;;;;4.95;2.72;;;13.00;99.90;;;;;;5096459;28;20093;-61